Tiempo atmosférico en la estación meteorológica de Aranjuez, Madrid (540 m.)



Fecha
DESCASC
Temp. máxima en grados centígrados (hora)
DESCASC
Temp. mínima en grados centígrados (hora)
DESCASC
Temp. media en grados centígrados
DESCASC
Racha de viento máxima en m/sg (hora)
DESCASC
Velocidad máxima media en intervalos de 10 minutos(hora)
DESCASC
Precipitaciones diarias en mm
DESCASC
Precipitaciones de 00:00 a 06:00 en mm
DESCASC
Precipitaciones de 06:00 a 12:00 en mm
DESCASC
Precipitaciones de 12:00 a 18:00 en mm
DESCASC
Precipitaciones de 18:00 a 24:00 en mm
DESCASC
21-02-2019 19.7 (16:50) -1 (08:00) 9.4 6.94 (15:50) 3.06 (03:00) 0 0 0 0 0
20-02-2019 17.2 (16:20) 0.6 (06:30) 8.9 5 (01:30) 3.33 (01:30) 0 0 0 0 0
19-02-2019 17.3 (17:10) 1 (08:10) 9.1 4.17 (04:10) 2.78 (04:00) 0 0 0 0 0
18-02-2019 16.6 (15:50) 1.9 (07:40) 9.3 8.61 (00:20) 5 (03:30) 0 0 0 0 0
17-02-2019 19 (16:10) -2.5 (-00:0) 8.3 8.89 (22:00) 6.11 (22:00) 0 0 0 0 0
16-02-2019 18.1 (16:00) -1.4 (-00:0) 8.4 12.5 (13:50) 5.83 (12:50) 0 0 0 0 0
15-02-2019 16.7 (17:10) -0.8 (-00:0) 8 5.56 (10:50) 2.78 (00:10) 0 0 0 0 0
14-02-2019 16.4 (16:50) -0.7 (-00:0) 7.8 7.5 (12:00) 4.72 (11:20) 0 0 0 0 0
13-02-2019 17.5 (17:40) -2.6 (-00:0) 7.5 5.83 (15:20) 3.33 (15:20) 0 0 0 0 0
12-02-2019 16.8 (17:50) -2.5 (-00:0) 7.1 4.72 (14:40) 2.78 (04:50) 0 0 0 0 0
11-02-2019 16.1 (16:10) 4.3 (00:00) 10.2 7.5 (14:30) 3.61 (09:40) 0 0 0 0 0
10-02-2019 13.2 (15:50) 0.9 (00:00) 7 11.11 (16:50) 4.72 (16:50) 0 0 0 0 0
09-02-2019 14.8 (16:40) -0.8 (-00:0) 7 4.17 (09:50) 3.06 (09:50) 0 0 0 0 0
08-02-2019 16.8 (17:00) -2.2 (-00:0) 7.3 6.11 (16:10) 3.33 (11:00) 0 0 0 0 0
07-02-2019 17.2 (17:00) -0.3 (00:00) 8.5 5 (09:50) 3.61 (10:00) 0 0 0 0 0
06-02-2019 17.6 (17:00) -2.7 (-00:0) 7.5 5.28 (16:10) 2.22 (16:20) 0 0 0 0 0
05-02-2019 16.4 (17:00) -3.2 (-00:0) 6.6 4.17 (16:10) 2.78 (01:20) 0 0 0 0 0
04-02-2019 12.2 (17:20) -4.6 (-00:0) 3.8 5 (16:30) 2.5 (07:10) 0 0 0 0 0
03-02-2019 9.9 (15:30) -2.6 (-00:0) 3.6 8.89 (15:10) 4.17 (00:50) 0 0 0 0 0
02-02-2019 10 (15:10) 0.2 (00:00) 5.1 12.78 (14:30) 7.5 (14:40) 0 0 0 0 0
01-02-2019 11.4 (14:50) 4.1 (00:00) 7.7 14.17 (12:00) 6.39 (16:40) 2.5 2.4 0 0.1 0
31-01-2019 15.8 (14:40) 7.4 (00:00) 11.6 15.56 (13:20) 6.94 (13:10) 3.2 0.2 0 0 3
30-01-2019 11.8 (15:40) 3.7 (00:00) 7.8 11.39 (17:40) 6.39 (02:00) 1.7 0 0 0 1.7
29-01-2019 12 (13:50) 0.6 (00:00) 6.3 13.89 (15:30) 5.83 (18:20) 0 0 0 0 0
28-01-2019 14.4 (15:50) 1.1 (00:00) 7.7 12.78 (15:30) 7.22 (15:50) 0 0 0 0 0
27-01-2019 13.5 (15:50) -3.1 (-00:0) 5.2 12.78 (10:30) 7.22 (10:20) 0 0 0 0 0
26-01-2019 15.5 (17:10) -3.2 (-00:0) 6.1 4.72 (15:50) 1.94 (14:20) 0 0 0 0 0
25-01-2019 17.2 (16:20) 1.2 (00:00) 9.2 7.22 (13:20) 3.89 (14:20) 0 0 0 0 0
24-01-2019 16.3 (13:50) 6 (00:00) 11.1 11.11 (01:00) 6.67 (03:20) 0 0 0 0 0

Gráficas

Temp. máximas Temp. mínimas Temp. medias Precipitaciones Rachas de viento máximas Velocidades máximas media en intervalos de 10 minutos

Datos horarios

Fecha y hora oficial Temperatura (ºC) Velocidad del viento (km/h) Dirección del viento Racha (km/h) Dirección de racha Precipitación (mm) Presión (hPa) Tendencia (hPa) Humedad (%)
2019-02-22 23:00:00 2.6 3 Este 8 Sudeste 0 -- -- 50
2019-02-22 22:00:00 3.8 0 Calma 4 Noroeste 0 -- -- 45
2019-02-22 21:00:00 6.1 2 Este 6 Este 0 -- -- 40
2019-02-22 20:00:00 9.2 2 Este 7 Nordeste 0 -- -- 35
2019-02-22 19:00:00 13.4 4 Nordeste 6 Nordeste 0 -- -- 27
2019-02-22 18:00:00 19 4 Noroeste 14 Noroeste 0 -- -- 23
2019-02-22 17:00:00 20 6 Noroeste 14 Noroeste 0 -- -- 23
2019-02-22 16:00:00 20.2 6 Oeste 15 Oeste 0 -- -- 26
2019-02-22 15:00:00 19.8 0 Calma 14 Oeste 0 -- -- 29
2019-02-22 14:00:00 18.3 5 Sudoeste 12 Noroeste 0 -- -- 32
2019-02-22 13:00:00 15.9 5 Noroeste 9 Norte 0 -- -- 38
2019-02-22 12:00:00 12.8 4 Este 12 Sudeste 0 -- -- 44
2019-02-22 11:00:00 9 8 Sudeste 13 Este 0 -- -- 53
2019-02-22 10:00:00 4.7 5 Sudeste 8 Sudeste 0 -- -- 67
2019-02-22 09:00:00 0 2 Oeste 6 Noroeste 0 -- -- 78
2019-02-22 08:00:00 -2.2 0 Calma 7 Sudeste 0 -- -- 75
2019-02-22 07:00:00 -0.1 0 Calma 17 Este 0 -- -- 66
2019-02-22 06:00:00 2.1 7 Este 19 Este 0 -- -- 65
2019-02-22 05:00:00 2.6 9 Este 19 Este 0 -- -- 64
2019-02-22 04:00:00 2.3 11 Este 17 Este 0 -- -- 63
2019-02-22 03:00:00 2.5 7 Este 11 Sudeste 0 -- -- 62
2019-02-22 02:00:00 2 4 Este 7 Este 0 -- -- 58
2019-02-22 01:00:00 3.8 0 Calma 12 Este 0 -- -- 50
2019-02-22 00:00:00 5.5 8 Este 14 Sudeste 0 -- -- 48
2019-02-21 23:00:00 6.2 2 Este 12 Este 0 -- -- 42
2019-02-21 22:00:00 7.9 5 Este 9 Este 0 -- -- 42
2019-02-21 21:00:00 6.7 0 Calma 4 Este 0 -- -- 39
2019-02-21 20:00:00 10 2 Este 8 Este 0 -- -- 32
2019-02-21 19:00:00 14.9 2 Sudeste 14 Sur 0 -- -- 27
2019-02-21 18:00:00 18.5 9 Sudeste 17 Sudeste 0 -- -- 24
2019-02-21 17:00:00 19.2 10 Sur 20 Sudeste 0 -- -- 25
2019-02-21 16:00:00 19.1 7 Sur 25 Sudeste 0 -- -- 29
2019-02-21 15:00:00 18.3 3 Sur 14 Sudeste 0 -- -- 35
2019-02-21 14:00:00 16.9 5 Este 12 Sudeste 0 -- -- 38
2019-02-21 13:00:00 15 3 Este 10 Sudeste 0 -- -- 42
2019-02-21 12:00:00 12.2 7 Este 13 Sudeste 0 -- -- 51
2019-02-21 11:00:00 9.2 2 Sur 12 Sudeste 0 -- -- 61
2019-02-21 10:00:00 5.9 7 Sudeste 12 Sudeste 0 -- -- 73
2019-02-21 09:00:00 2.1 7 Este 12 Este 0 -- -- 87
2019-02-21 08:00:00 -1 0 Calma 6 Sudeste 0 -- -- 84
2019-02-21 07:00:00 1.9 8 Este 15 Este 0 -- -- 81
2019-02-21 06:00:00 2.2 9 Este 13 Este 0 -- -- 81
2019-02-21 05:00:00 2 4 Este 14 Sudeste 0 -- -- 78
2019-02-21 04:00:00 3 7 Este 13 Este 0 -- -- 77
2019-02-21 03:00:00 3 11 Este 16 Sudeste 0 -- -- 76
2019-02-21 02:00:00 3.2 7 Este 12 Sudeste 0 -- -- 74
2019-02-21 01:00:00 4 2 Sudeste 16 Este 0 -- -- 69
2019-02-21 00:00:00 6 7 Este 13 Este 0 -- -- 67
2019-02-20 23:00:00 5.1 4 Este 8 Sudeste 0 -- -- 68
2019-02-20 22:00:00 5 2 Noroeste 4 Este 0 -- -- 66
2019-02-20 21:00:00 6.6 3 Este 4 Este 0 -- -- 59
2019-02-20 20:00:00 8.8 4 Noroeste 8 Norte 0 -- -- 51
2019-02-20 19:00:00 12.5 5 Noroeste 13 Noroeste 0 -- -- 43
2019-02-20 18:00:00 15.8 5 Noroeste 14 Noroeste 0 -- -- 39
2019-02-20 17:00:00 16.8 4 Oeste 14 Noroeste 0 -- -- 38
2019-02-20 16:00:00 16.9 6 Oeste 13 Oeste 0 -- -- 38
2019-02-20 15:00:00 16.1 3 Noroeste 12 Sudeste 0 -- -- 41
2019-02-20 14:00:00 14.7 5 Sudeste 11 Sudeste 0 -- -- 44
2019-02-20 13:00:00 12.9 6 Sudeste 12 Este 0 -- -- 49
2019-02-20 12:00:00 10.6 6 Sudeste 17 Sudeste 0 -- -- 56
2019-02-20 11:00:00 8.2 10 Sudeste 14 Sudeste 0 -- -- 61
2019-02-20 10:00:00 4.8 5 Sudeste 12 Sudeste 0 -- -- 74
2019-02-20 09:00:00 1.5 9 Este 15 Este 0 -- -- 83
2019-02-20 08:00:00 0.6 6 Este 11 Este 0 -- -- 83
2019-02-20 07:00:00 1.2 6 Sudeste 11 Sudeste 0 -- -- 82
2019-02-20 06:00:00 1 2 Sudeste 5 Este 0 -- -- 80
2019-02-20 05:00:00 1.4 2 Este 9 Este 0 -- -- 76
2019-02-20 04:00:00 2.8 3 Sudeste 11 Este 0 -- -- 74
2019-02-20 03:00:00 3.3 4 Este 16 Este 0 -- -- 74
2019-02-20 02:00:00 3.5 9 Este 18 Sudeste 0 -- -- 73
2019-02-20 01:00:00 4.1 6 Este 14 Este 0 -- -- 71
2019-02-20 00:00:00 4.3 8 Este 12 Sudeste 0 -- -- 71
2019-02-19 23:00:00 3.4 2 Norte 4 Norte 0 -- -- 71
2019-02-19 22:00:00 4.5 0 Calma 4 Norte 0 -- -- 65
2019-02-19 21:00:00 6.1 0 Calma 5 Norte 0 -- -- 58
2019-02-19 20:00:00 8.4 4 Norte 7 Norte 0 -- -- 49
2019-02-19 19:00:00 12.7 3 Noroeste 9 Noroeste 0 -- -- 40
2019-02-19 18:00:00 16 3 Noroeste 8 Oeste 0 -- -- 35
2019-02-19 17:00:00 17.2 0 Calma 8 Oeste 0 -- -- 35
2019-02-19 16:00:00 16.6 0 Calma 11 Sur 0 -- -- 36
2019-02-19 15:00:00 15.9 2 Sur 14 Sudeste 0 -- -- 38
2019-02-19 14:00:00 14.3 8 Este 13 Sudeste 0 -- -- 42
2019-02-19 13:00:00 12.3 4 Sudeste 12 Sudeste 0 -- -- 49
2019-02-19 12:00:00 11 4 Sudeste 12 Sudeste 0 -- -- 56
2019-02-19 11:00:00 8.2 6 Sudeste 12 Sudeste 0 -- -- 67
2019-02-19 10:00:00 5.6 4 Sudeste 10 Este 0 -- -- 80
2019-02-19 09:00:00 1.9 3 Este 6 Este 0 -- -- 89
2019-02-19 08:00:00 1.2 4 Sudeste 7 Sudeste 0 -- -- 88
2019-02-19 07:00:00 1.7 3 Este 9 Este 0 -- -- 86
2019-02-19 06:00:00 3.7 7 Este 10 Sudeste 0 -- -- 85
2019-02-19 05:00:00 4.1 6 Nordeste 15 Sudeste 0 -- -- 85
2019-02-19 04:00:00 4.4 10 Este 15 Este 0 -- -- 83
2019-02-19 03:00:00 4.5 5 Este 11 Este 0 -- -- 80
2019-02-19 02:00:00 3.9 4 Este 9 Este 0 -- -- 78
2019-02-19 01:00:00 3.1 4 Este 6 Este 0 -- -- 75
2019-02-19 00:00:00 3.5 3 Este 6 Este 0 -- -- 66
2019-02-18 23:00:00 4.1 2 Este 5 Este 0 -- -- 60
2019-02-18 22:00:00 6 2 Este 6 Nordeste 0 -- -- 55
2019-02-18 21:00:00 6.4 2 Norte 8 Nordeste 0 -- -- 54
2019-02-18 20:00:00 7.7 0 Calma 4 Norte 0 -- -- 49
2019-02-18 19:00:00 11.9 2 Norte 5 Sur 0 -- -- 40
2019-02-18 18:00:00 15.1 6 Sur 17 Sudeste 0 -- -- 34
2019-02-18 17:00:00 15.8 8 Sur 19 Sudeste 0 -- -- 34
2019-02-18 16:00:00 16.4 9 Sudeste 18 Sur 0 -- -- 35
2019-02-18 15:00:00 15.3 9 Sudeste 23 Sudeste 0 -- -- 38
2019-02-18 14:00:00 14.2 8 Este 19 Sudeste 0 -- -- 43
2019-02-18 13:00:00 12.9 10 Sudeste 23 Este 0 -- -- 48
2019-02-18 12:00:00 11 11 Este 25 Sudeste 0 -- -- 55
2019-02-18 11:00:00 8.8 12 Este 22 Sudeste 0 -- -- 63
2019-02-18 10:00:00 7 9 Sudeste 14 Sudeste 0 -- -- 72
2019-02-18 09:00:00 3.5 0 Calma 8 Este 0 -- -- 87
2019-02-18 08:00:00 2.6 5 Este 8 Este 0 -- -- 87
2019-02-18 07:00:00 3.1 2 Este 9 Este 0 -- -- 83
2019-02-18 06:00:00 4.5 5 Este 15 Sudeste 0 -- -- 82
2019-02-18 05:00:00 5 5 Nordeste 17 Sudeste 0 -- -- 82
2019-02-18 04:00:00 5.6 12 Sudeste 24 Sudeste 0 -- -- 81
2019-02-18 03:00:00 5.8 14 Sudeste 20 Sudeste 0 -- -- 77
2019-02-18 02:00:00 6.7 12 Sudeste 22 Sudeste 0 -- -- 70
2019-02-18 01:00:00 7.6 7 Este 31 Sudeste 0 -- -- 62
2019-02-18 00:00:00 8.9 15 Sudeste 31 Sudeste 0 -- -- 57
2019-02-17 23:00:00 9.5 18 Sudeste 29 Sudeste 0 -- -- 48
2019-02-17 22:00:00 10.6 22 Sudeste 32 Sudeste 0 -- -- 44
2019-02-17 21:00:00 11.1 15 Sudeste 31 Sudeste 0 -- -- 38
2019-02-17 20:00:00 11.1 10 Este 17 Sudeste 0 -- -- 31
2019-02-17 19:00:00 12.8 4 Sudeste 16 Sur 0 -- -- 27
2019-02-17 18:00:00 16.9 6 Sur 23 Sur 0 -- -- 23
2019-02-17 17:00:00 18.5 10 Sur 20 Sur 0 -- -- 22
2019-02-17 16:00:00 18.9 8 Sur 28 Sur 0 -- -- 23
2019-02-17 15:00:00 18 4 Sur 21 Sudeste 0 -- -- 24
2019-02-17 14:00:00 17.2 4 Sur 12 Sudoeste 0 -- -- 26
2019-02-17 13:00:00 14.4 2 Este 15 Este 0 -- -- 28
2019-02-17 12:00:00 12.1 6 Este 12 Este 0 -- -- 31
2019-02-17 11:00:00 9 0 Calma 6 Nordeste 0 -- -- 36
2019-02-17 10:00:00 4.3 0 Calma 6 Este 0 -- -- 43
2019-02-17 09:00:00 0 0 Calma 6 Noroeste 0 -- -- 53
2019-02-17 08:00:00 -2.3 0 Calma 8 Noroeste 0 -- -- 52
2019-02-17 07:00:00 -2.1 4 Norte 9 Norte 0 -- -- 49
2019-02-17 06:00:00 0 4 Este 10 Este 0 -- -- 45
2019-02-17 05:00:00 1.2 5 Este 10 Este 0 -- -- 46
2019-02-17 04:00:00 -0.7 3 Este 6 Noroeste 0 -- -- 50
2019-02-17 03:00:00 0.1 3 Nordeste 9 Nordeste 0 -- -- 47
2019-02-17 02:00:00 3.8 5 Nordeste 9 Este 0 -- -- 44
2019-02-17 01:00:00 4.5 6 Este 9 Este 0 -- -- 47
2019-02-17 00:00:00 4 4 Nordeste 12 Sudeste 0 -- -- 46
2019-02-16 23:00:00 7.2 8 Este 17 Este 0 -- -- 42
2019-02-16 22:00:00 8.6 11 Este 25 Sudeste 0 -- -- 41
2019-02-16 21:00:00 9.4 7 Este 17 Este 0 -- -- 38
2019-02-16 20:00:00 11.4 8 Este 14 Este 0 -- -- 35
2019-02-16 19:00:00 13.9 10 Este 27 Sudeste 0 -- -- 31
2019-02-16 18:00:00 16.6 16 Sudeste 33 Sudeste 0 -- -- 27
2019-02-16 17:00:00 17.6 17 Sudeste 32 Sur 0 -- -- 26
2019-02-16 16:00:00 17.7 14 Sudeste 38 Sudeste 0 -- -- 26
2019-02-16 15:00:00 17.3 21 Sudeste 35 Sudeste 0 -- -- 26
2019-02-16 14:00:00 17.2 17 Sudeste 45 Sudeste 0 -- -- 26
2019-02-16 13:00:00 15.6 18 Sudeste 33 Sudeste 0 -- -- 28
2019-02-16 12:00:00 13.4 19 Sudeste 32 Sudeste 0 -- -- 34
2019-02-16 11:00:00 9.6 3 Sudeste 8 Sudeste 0 -- -- 56
2019-02-16 10:00:00 5.7 4 Sudeste 7 Sudeste 0 -- -- 74
2019-02-16 09:00:00 1.6 4 Sudeste 9 Sudeste 0 -- -- 90
2019-02-16 08:00:00 -1.3 3 Norte 6 Norte 0 -- -- 88
2019-02-16 07:00:00 0.1 4 Este 10 Nordeste 0 -- -- 85
2019-02-16 06:00:00 0.7 2 Este 5 Este 0 -- -- 81
2019-02-16 05:00:00 3.9 4 Este 15 Este 0 -- -- 75
2019-02-16 04:00:00 4.7 9 Este 14 Este 0 -- -- 74
2019-02-16 03:00:00 4.9 7 Este 12 Este 0 -- -- 74
2019-02-16 02:00:00 5.3 8 Este 14 Sudeste 0 -- -- 71
2019-02-16 01:00:00 6.4 8 Este 11 Este 0 -- -- 71
2019-02-16 00:00:00 5.9 5 Este 9 Este 0 -- -- 73
2019-02-15 23:00:00 4 2 Este 5 Este 0 -- -- 74
2019-02-15 22:00:00 5.6 2 Este 10 Este 0 -- -- 67
2019-02-15 21:00:00 6.4 2 Nordeste 8 Sudeste 0 -- -- 64
2019-02-15 20:00:00 6.9 0 Calma 6 Norte 0 -- -- 58
2019-02-15 19:00:00 11.2 4 Norte 7 Noroeste 0 -- -- 47
2019-02-15 18:00:00 15.7 5 Noroeste 9 Oeste 0 -- -- 40
2019-02-15 17:00:00 16.6 4 Sudoeste 11 Noroeste 0 -- -- 39
2019-02-15 16:00:00 15.7 5 Noroeste 15 Oeste 0 -- -- 43
2019-02-15 15:00:00 14.9 5 Oeste 15 Sur 0 -- -- 43
2019-02-15 14:00:00 13.3 0 Calma 14 Sudeste 0 -- -- 49
2019-02-15 13:00:00 11.3 5 Sur 15 Sudeste 0 -- -- 55
2019-02-15 12:00:00 8.4 5 Sudeste 13 Este 0 -- -- 68
2019-02-15 11:00:00 4.8 9 Sudeste 20 Sudeste 0 -- -- 87
2019-02-15 10:00:00 2.8 7 Este 11 Este 0 -- -- 92
2019-02-15 09:00:00 0.8 0 Calma 3 Sur 0 -- -- 91
2019-02-15 08:00:00 0.3 0 Calma 11 Sudeste 0 -- -- 91
2019-02-15 07:00:00 -0.6 6 Este 13 Este 0 -- -- 87
2019-02-15 06:00:00 0.1 5 Este 8 Este 0 -- -- 88
2019-02-15 05:00:00 -0.5 3 Este 6 Este 0 -- -- 87
2019-02-15 04:00:00 0 0 Calma 9 Este 0 -- -- 81
2019-02-15 03:00:00 4 6 Este 14 Este 0 -- -- 75
2019-02-15 02:00:00 4.2 6 Este 12 Sudeste 0 -- -- 74
2019-02-15 01:00:00 4.5 7 Este 14 Este 0 -- -- 69
2019-02-15 00:00:00 5.3 9 Este 13 Este 0 -- -- 65
2019-02-14 23:00:00 5.2 6 Este 10 Este 0 -- -- 61
2019-02-14 22:00:00 6.6 7 Este 12 Sudeste 0 -- -- 52
2019-02-14 21:00:00 8.9 6 Este 10 Nordeste 0 -- -- 46
2019-02-14 20:00:00 9.6 4 Este 9 Este 0 -- -- 43
2019-02-14 19:00:00 12.6 4 Este 10 Sudeste 0 -- -- 37
2019-02-14 18:00:00 15.7 6 Sudeste 17 Sur 0 -- -- 33
2019-02-14 17:00:00 16.1 8 Sudeste 19 Sur 0 -- -- 34
2019-02-14 16:00:00 16 9 Sudeste 22 Sudeste 0 -- -- 35
2019-02-14 15:00:00 15.2 10 Sudeste 24 Sudeste 0 -- -- 37
2019-02-14 14:00:00 13.8 11 Sudeste 22 Sudeste 0 -- -- 40
2019-02-14 13:00:00 12.4 11 Este 26 Este 0 -- -- 46
2019-02-14 12:00:00 10.7 17 Este 27 Este 0 -- -- 51
2019-02-14 11:00:00 8.3 16 Sudeste 24 Sudeste 0 -- -- 61
2019-02-14 10:00:00 5.9 2 Sudeste 8 Este 0 -- -- 70
2019-02-14 09:00:00 2.4 4 Este 8 Este 0 -- -- 84
2019-02-14 08:00:00 0.4 4 Este 7 Nordeste 0 -- -- 82
2019-02-14 07:00:00 1 2 Este 9 Este 0 -- -- 70
2019-02-14 06:00:00 3 7 Este 11 Este 0 -- -- 65
2019-02-14 05:00:00 3.9 7 Este 12 Este 0 -- -- 61
2019-02-14 04:00:00 4.2 8 Este 17 Este 0 -- -- 58
2019-02-14 03:00:00 5.1 9 Este 21 Este 0 -- -- 58
2019-02-14 02:00:00 4.6 8 Este 15 Este 0 -- -- 55
2019-02-14 01:00:00 4.1 6 Este 12 Este 0 -- -- 49
2019-02-14 00:00:00 5.3 8 Este 14 Sudeste 0 -- -- 44
2019-02-13 23:00:00 5 8 Este 15 Este 0 -- -- 42
2019-02-13 22:00:00 7.4 6 Este 13 Este 0 -- -- 37
2019-02-13 21:00:00 9 7 Este 10 Este 0 -- -- 36
2019-02-13 20:00:00 8.8 5 Este 8 Este 0 -- -- 43
2019-02-13 19:00:00 12.9 0 Calma 5 Este 0 -- -- 37
2019-02-13 18:00:00 17.2 3 Sudeste 12 Este 0 -- -- 32
2019-02-13 17:00:00 17.2 8 Sudeste 18 Sudeste 0 -- -- 31
2019-02-13 16:00:00 17 7 Sudeste 21 Sudeste 0 -- -- 31
2019-02-13 15:00:00 16.5 2 Este 15 Sur 0 -- -- 36
2019-02-13 14:00:00 14.5 3 Sudeste 12 Sudeste 0 -- -- 41
2019-02-13 13:00:00 13 5 Sudeste 13 Sudeste 0 -- -- 46
2019-02-13 12:00:00 10.3 9 Este 15 Sudeste 0 -- -- 54
2019-02-13 11:00:00 7 6 Sudeste 13 Sudeste 0 -- -- 66
2019-02-13 10:00:00 2.7 4 Sudeste 7 Sudeste 0 -- -- 80
2019-02-13 09:00:00 -0.9 0 Calma 5 Este 0 -- -- 91
2019-02-13 08:00:00 -2.4 0 Calma 6 Este 0 -- -- 91
2019-02-13 07:00:00 -1.9 2 Este 3 Este 0 -- -- 90
2019-02-13 06:00:00 -1.6 0 Calma 5 Norte 0 -- -- 88
2019-02-13 05:00:00 -0.7 0 Calma 4 Noroeste 0 -- -- 87
2019-02-13 04:00:00 -0.4 0 Calma 5 Sudeste 0 -- -- 82
2019-02-13 03:00:00 0.9 2 Este 5 Noroeste 0 -- -- 80
2019-02-13 02:00:00 2.5 0 Calma 10 Este 0 -- -- 74
2019-02-13 01:00:00 3.1 3 Sudeste 8 Sudeste 0 -- -- 72
2019-02-13 00:00:00 3.4 3 Este 6 Este 0 -- -- 64
2019-02-12 23:00:00 4.8 0 Calma 10 Este 0 -- -- 58
2019-02-12 22:00:00 7 6 Este 10 Sudeste 0 -- -- 52
2019-02-12 21:00:00 8.4 3 Sudeste 14 Nordeste 0 -- -- 47
2019-02-12 20:00:00 9.7 6 Norte 12 Nordeste 0 -- -- 45
2019-02-12 19:00:00 12 8 Norte 14 Nordeste 0 -- -- 40
2019-02-12 18:00:00 16.2 2 Nordeste 7 Nordeste 0 -- -- 35
2019-02-12 17:00:00 16 3 Este 9 Nordeste 0 -- -- 36
2019-02-12 16:00:00 15.5 4 Sur 13 Sudeste 0 -- -- 37
2019-02-12 15:00:00 15.3 4 Sudeste 17 Sur 0 -- -- 37
2019-02-12 14:00:00 14.1 0 Calma 14 Este 0 -- -- 43
2019-02-12 13:00:00 12 3 Sudeste 15 Este 0 -- -- 46
2019-02-12 12:00:00 9 5 Este 11 Este 0 -- -- 52
2019-02-12 11:00:00 5.9 4 Sudeste 14 Sudeste 0 -- -- 64
2019-02-12 10:00:00 2.6 5 Sudeste 8 Sudeste 0 -- -- 77
2019-02-12 09:00:00 -1.2 0 Calma 5 Sudeste 0 -- -- 86
2019-02-12 08:00:00 -1.9 3 Este 7 Este 0 -- -- 84
2019-02-12 07:00:00 -1 4 Sudeste 8 Sudeste 0 -- -- 82
2019-02-12 06:00:00 -0.3 4 Nordeste 10 Sur 0 -- -- 80
2019-02-12 05:00:00 1.9 5 Nordeste 17 Nordeste 0 -- -- 77
2019-02-12 04:00:00 1 3 Noroeste 7 Este 0 -- -- 72
2019-02-12 03:00:00 2.3 4 Sudeste 12 Nordeste 0 -- -- 67
2019-02-12 02:00:00 2.5 6 Norte 12 Nordeste 0 -- -- 65
2019-02-12 01:00:00 4.9 8 Nordeste 12 Nordeste 0 -- -- 58
2019-02-12 00:00:00 6.1 7 Este 14 Este 0 -- -- 52
2019-02-11 23:00:00 6.8 9 Este 14 Sudeste 0 -- -- 48
2019-02-11 22:00:00 7.6 5 Este 13 Nordeste 0 -- -- 43
2019-02-11 21:00:00 8.7 8 Nordeste 14 Nordeste 0 -- -- 38
2019-02-11 20:00:00 9.7 8 Nordeste 14 Nordeste 0 -- -- 33
2019-02-11 19:00:00 11.7 8 Nordeste 14 Este 0 -- -- 28
2019-02-11 18:00:00 15 6 Nordeste 20 Nordeste 0 -- -- 25
2019-02-11 17:00:00 15.9 9 Nordeste 23 Nordeste 0 -- -- 21
2019-02-11 16:00:00 15.8 11 Nordeste 22 Nordeste 0 -- -- 23
2019-02-11 15:00:00 15.4 10 Nordeste 27 Nordeste 0 -- -- 25
2019-02-11 14:00:00 14.4 12 Norte 23 Nordeste 0 -- -- 29
2019-02-11 13:00:00 13.8 9 Nordeste 24 Nordeste 0 -- -- 35
2019-02-11 12:00:00 12.3 8 Nordeste 24 Nordeste 0 -- -- 43
2019-02-11 11:00:00 10 12 Este 22 Este 0 -- -- 68
2019-02-11 10:00:00 5.7 9 Este 18 Sudeste 0 -- -- 93
2019-02-11 09:00:00 4.8 0 Calma 8 Norte 0 -- -- 92
2019-02-11 08:00:00 4.7 5 Noroeste 8 Noroeste 0 -- -- 92
2019-02-11 07:00:00 6.2 0 Calma 8 Norte 0 -- -- 92
2019-02-11 06:00:00 7 3 Sudeste 10 Sudeste 0 -- -- 91
2019-02-11 05:00:00 7.3 4 Este 12 Noroeste 0 -- -- 89
2019-02-11 04:00:00 8.3 10 Noroeste 16 Noroeste 0 -- -- 89
2019-02-11 03:00:00 9.4 5 Oeste 12 Noroeste 0 -- -- 87
2019-02-11 02:00:00 10.1 5 Oeste 16 Oeste 0 -- -- 86
2019-02-11 01:00:00 10.1 5 Oeste 14 Sudoeste 0 -- -- 84
2019-02-11 00:00:00 10.2 5 Oeste 17 Oeste 0 -- -- 82
2019-02-10 23:00:00 10.4 6 Oeste 14 Oeste 0 -- -- 79
2019-02-10 22:00:00 10.9 6 Oeste 15 Oeste 0 -- -- 76
2019-02-10 21:00:00 11.1 6 Oeste 19 Noroeste 0 -- -- 73
2019-02-10 20:00:00 11.4 8 Oeste 26 Sudoeste 0 -- -- 70
2019-02-10 19:00:00 11.6 9 Oeste 35 Noroeste 0 -- -- 68
2019-02-10 18:00:00 12.2 15 Oeste 37 Noroeste 0 -- -- 63
2019-02-10 17:00:00 12.7 17 Oeste 40 Oeste 0 -- -- 60
2019-02-10 16:00:00 12.9 14 Oeste 33 Oeste 0 -- -- 60
2019-02-10 15:00:00 12.8 13 Oeste 38 Oeste 0 -- -- 61
2019-02-10 14:00:00 12 14 Oeste 34 Oeste 0 -- -- 65
2019-02-10 13:00:00 10.5 9 Oeste 27 Oeste 0 -- -- 68
2019-02-10 12:00:00 9.9 13 Oeste 32 Oeste 0 -- -- 70
2019-02-10 11:00:00 9.4 11 Oeste 26 Oeste 0 -- -- 73
2019-02-10 10:00:00 6.4 4 Oeste 9 Oeste 0 -- -- 88
2019-02-10 09:00:00 2.8 6 Este 10 Este 0 -- -- 92
2019-02-10 08:00:00 2.2 3 Sudeste 7 Sudeste 0 -- -- 92
2019-02-10 07:00:00 1.7 2 Sudeste 6 Noroeste 0 -- -- 92
2019-02-10 06:00:00 1 3 Norte 7 Este 0 -- -- 92
2019-02-10 05:00:00 2.1 3 Este 6 Este 0 -- -- 92
2019-02-10 04:00:00 2.2 2 Este 8 Sudeste 0 -- -- 91
2019-02-10 03:00:00 2.9 2 Este 4 Este 0 -- -- 91
2019-02-10 02:00:00 2.9 0 Calma 5 Sudeste 0 -- -- 90
2019-02-10 01:00:00 3.1 2 Este 4 Sudeste 0 -- -- 90
2019-02-10 00:00:00 2.7 0 Calma 6 Noroeste 0 -- -- 87
2019-02-09 23:00:00 3.1 2 Norte 5 Norte 0 -- -- 81
2019-02-09 22:00:00 4.5 3 Noroeste 6 Noroeste 0 -- -- 76
2019-02-09 21:00:00 5.4 4 Noroeste 8 Noroeste 0 -- -- 70
2019-02-09 20:00:00 7 5 Noroeste 6 Norte 0 -- -- 63
2019-02-09 19:00:00 9.8 5 Noroeste 8 Noroeste 0 -- -- 53
2019-02-09 18:00:00 13 3 Noroeste 12 Oeste 0 -- -- 46
2019-02-09 17:00:00 14.4 4 Oeste 14 Oeste 0 -- -- 43
2019-02-09 16:00:00 14.2 6 Oeste 14 Oeste 0 -- -- 44
2019-02-09 15:00:00 13.3 3 Oeste 11 Noroeste 0 -- -- 51
2019-02-09 14:00:00 11.9 4 Oeste 10 Oeste 0 -- -- 60
2019-02-09 13:00:00 9.9 4 Sudoeste 8 Oeste 0 -- -- 69
2019-02-09 12:00:00 7.6 2 Sudeste 9 Sudeste 0 -- -- 79
2019-02-09 11:00:00 5.2 5 Sudeste 13 Este 0 -- -- 83
2019-02-09 10:00:00 2.4 11 Este 15 Este 0 -- -- 87
2019-02-09 09:00:00 0.3 9 Este 14 Este 0 -- -- 92
2019-02-09 08:00:00 -0.7 6 Este 14 Sudeste 0 -- -- 92
2019-02-09 07:00:00 -0.5 9 Este 14 Sudeste 0 -- -- 92
2019-02-09 06:00:00 0.1 6 Este 12 Este 0 -- -- 92
2019-02-09 05:00:00 0.1 7 Este 11 Sudeste 0 -- -- 92
2019-02-09 04:00:00 1 2 Sudeste 9 Este 0 -- -- 92
2019-02-09 03:00:00 0.3 3 Sudeste 8 Este 0 -- -- 90
2019-02-09 02:00:00 1.2 0 Calma 6 Norte 0 -- -- 90
2019-02-09 01:00:00 1.9 3 Este 7 Norte 0 -- -- 87
2019-02-09 00:00:00 3 0 Calma 8 Este 0 -- -- 82
2019-02-08 23:00:00 4.1 3 Sur 8 Noroeste 0 -- -- 79
2019-02-08 22:00:00 4.7 0 Calma 5 Sur 0 -- -- 74
2019-02-08 21:00:00 5.8 3 Noroeste 5 Norte 0 -- -- 68
2019-02-08 20:00:00 7.4 3 Norte 7 Norte 0 -- -- 59
2019-02-08 19:00:00 11.1 5 Noroeste 6 Sudoeste 0 -- -- 47
2019-02-08 18:00:00 16.1 5 Oeste 19 Oeste 0 -- -- 40
2019-02-08 17:00:00 16.7 6 Oeste 22 Noroeste 0 -- -- 38
2019-02-08 16:00:00 16.1 10 Oeste 19 Noroeste 0 -- -- 37
2019-02-08 15:00:00 15.3 8 Oeste 16 Oeste 0 -- -- 39
2019-02-08 14:00:00 14.9 4 Oeste 12 Oeste 0 -- -- 44
2019-02-08 13:00:00 13.3 0 Calma 8 Sudeste 0 -- -- 49
2019-02-08 12:00:00 10 4 Sudeste 16 Sudeste 0 -- -- 60
2019-02-08 11:00:00 6 12 Sudeste 15 Sudeste 0 -- -- 73
2019-02-08 10:00:00 2.7 5 Sudeste 15 Sudeste 0 -- -- 83
2019-02-08 09:00:00 0 6 Sudeste 13 Este 0 -- -- 90
2019-02-08 08:00:00 -2.1 2 Sudeste 8 Este 0 -- -- 88
2019-02-08 07:00:00 -0.8 6 Este 8 Sudeste 0 -- -- 87
2019-02-08 06:00:00 0 6 Este 12 Este 0 -- -- 84
2019-02-08 05:00:00 0.8 4 Este 15 Este 0 -- -- 84
2019-02-08 04:00:00 1.1 6 Este 11 Sudeste 0 -- -- 82
2019-02-08 03:00:00 0.9 6 Este 11 Este 0 -- -- 80
2019-02-08 02:00:00 2.3 8 Este 12 Sudeste 0 -- -- 78
2019-02-08 01:00:00 2.4 4 Este 18 Este 0 -- -- 77
2019-02-08 00:00:00 2.4 3 Este 9 Sudeste 0 -- -- 78
2019-02-07 23:00:00 3 2 Este 7 Sudeste 0 -- -- 77
2019-02-07 22:00:00 3.3 2 Noroeste 6 Noroeste 0 -- -- 74
2019-02-07 21:00:00 4.8 2 Este 6 Sudeste 0 -- -- 67
2019-02-07 20:00:00 7.6 0 Calma 8 Norte 0 -- -- 57
2019-02-07 19:00:00 12.1 3 Noroeste 7 Oeste 0 -- -- 43
2019-02-07 18:00:00 16.6 4 Sudoeste 10 Oeste 0 -- -- 35
2019-02-07 17:00:00 17.1 4 Oeste 12 Noroeste 0 -- -- 33
2019-02-07 16:00:00 16.3 6 Noroeste 13 Norte 0 -- -- 33
2019-02-07 15:00:00 15.4 6 Noroeste 14 Noroeste 0 -- -- 38
2019-02-07 14:00:00 13.9 6 Noroeste 12 Noroeste 0 -- -- 45
2019-02-07 13:00:00 12.1 3 Oeste 10 Norte 0 -- -- 55
2019-02-07 12:00:00 9.5 0 Calma 9 Sudeste 0 -- -- 63
2019-02-07 11:00:00 7.2 5 Sudeste 16 Sudeste 0 -- -- 73
2019-02-07 10:00:00 3.4 13 Sudeste 18 Sudeste 0 -- -- 85
2019-02-07 09:00:00 0 3 Sudeste 13 Este 0 -- -- 90
2019-02-07 08:00:00 0.6 9 Este 13 Este 0 -- -- 90
2019-02-07 07:00:00 0.6 7 Este 16 Este 0 -- -- 89
2019-02-07 06:00:00 1.1 8 Sudeste 14 Este 0 -- -- 87
2019-02-07 05:00:00 1.5 6 Este 10 Sudeste 0 -- -- 87
2019-02-07 04:00:00 2.2 8 Este 15 Sudeste 0 -- -- 87
2019-02-07 03:00:00 1 3 Sudeste 6 Sudeste 0 -- -- 87
2019-02-07 02:00:00 1.6 3 Sudeste 5 Sudeste 0 -- -- 86
2019-02-07 01:00:00 2 2 Noroeste 5 Nordeste 0 -- -- 84
2019-02-07 00:00:00 2.6 0 Calma 4 Sudeste 0 -- -- 81
2019-02-06 23:00:00 4 2 Este 5 Sudeste 0 -- -- 77
2019-02-06 22:00:00 4.7 0 Calma 5 Este 0 -- -- 73
2019-02-06 21:00:00 6.3 2 Sudeste 5 Norte 0 -- -- 67
2019-02-06 20:00:00 7.6 3 Norte 6 Norte 0 -- -- 59
2019-02-06 19:00:00 11.2 2 Noroeste 9 Noroeste 0 -- -- 46
2019-02-06 18:00:00 16 7 Noroeste 14 Noroeste 0 -- -- 37
2019-02-06 17:00:00 17.3 6 Oeste 19 Oeste 0 -- -- 36
2019-02-06 16:00:00 17.4 5 Oeste 16 Oeste 0 -- -- 37
2019-02-06 15:00:00 16.3 4 Sudoeste 13 Oeste 0 -- -- 38
2019-02-06 14:00:00 14.6 3 Sudoeste 12 Oeste 0 -- -- 46
2019-02-06 13:00:00 12.3 2 Sur 8 Sudeste 0 -- -- 52
2019-02-06 12:00:00 9.5 4 Sudeste 10 Sudeste 0 -- -- 63
2019-02-06 11:00:00 5.8 3 Sudeste 6 Sudeste 0 -- -- 74
2019-02-06 10:00:00 2 4 Sudeste 7 Sudeste 0 -- -- 87
2019-02-06 09:00:00 -1.6 0 Calma 4 Sudeste 0 -- -- 92
2019-02-06 08:00:00 -2.5 0 Calma 3 Sudeste 0 -- -- 91
2019-02-06 07:00:00 -2.2 3 Noroeste 6 Este 0 -- -- 90
2019-02-06 06:00:00 -0.4 3 Este 10 Este 0 -- -- 89
2019-02-06 05:00:00 0 6 Este 9 Este 0 -- -- 88
2019-02-06 04:00:00 0.1 2 Este 8 Este 0 -- -- 84
2019-02-06 03:00:00 1.2 4 Este 12 Sudeste 0 -- -- 83
2019-02-06 02:00:00 2 6 Este 10 Este 0 -- -- 80
2019-02-06 01:00:00 2.9 5 Este 12 Sudeste 0 -- -- 78
2019-02-06 00:00:00 3.5 7 Este 11 Sudeste 0 -- -- 81
2019-02-05 23:00:00 2.5 4 Este 6 Sudeste 0 -- -- 80
2019-02-05 22:00:00 3.5 0 Calma 5 Noroeste 0 -- -- 74
2019-02-05 21:00:00 5.4 2 Norte 5 Sudeste 0 -- -- 66
2019-02-05 20:00:00 7.6 3 Oeste 7 Norte 0 -- -- 61
2019-02-05 19:00:00 10 5 Norte 10 Oeste 0 -- -- 47
2019-02-05 18:00:00 15 5 Oeste 12 Oeste 0 -- -- 38
2019-02-05 17:00:00 16.2 6 Oeste 15 Noroeste 0 -- -- 36
2019-02-05 16:00:00 15.9 5 Oeste 13 Oeste 0 -- -- 37
2019-02-05 15:00:00 14.6 3 Oeste 12 Oeste 0 -- -- 36
2019-02-05 14:00:00 13.2 3 Sudoeste 9 Oeste 0 -- -- 39
2019-02-05 13:00:00 10.8 3 Sudoeste 9 Sudoeste 0 -- -- 47
2019-02-05 12:00:00 7.8 2 Sudoeste 6 Oeste 0 -- -- 54
2019-02-05 11:00:00 4.9 0 Calma 5 Este 0 -- -- 66
2019-02-05 10:00:00 1.4 2 Sudeste 6 Sudeste 0 -- -- 81
2019-02-05 09:00:00 -2.3 2 Sudeste 4 Sudeste 0 -- -- 88
2019-02-05 08:00:00 -3.1 0 Calma 10 Este 0 -- -- 85
2019-02-05 07:00:00 -1.4 6 Este 13 Este 0 -- -- 84
2019-02-05 06:00:00 -1 8 Este 13 Este 0 -- -- 84
2019-02-05 05:00:00 -1.6 6 Este 10 Sudeste 0 -- -- 82
2019-02-05 04:00:00 -0.1 6 Este 9 Este 0 -- -- 81
2019-02-05 03:00:00 -0.1 3 Sudeste 11 Sudeste 0 -- -- 76
2019-02-05 02:00:00 0.5 7 Este 15 Este 0 -- -- 75
2019-02-05 01:00:00 0.6 8 Este 13 Este 0 -- -- 75
2019-02-05 00:00:00 0.6 6 Este 10 Sudeste 0 -- -- 75
2019-02-04 23:00:00 0.1 0 Calma 5 Sudeste 0 -- -- 75
2019-02-04 22:00:00 0.8 0 Calma 7 Sudeste 0 -- -- 70
2019-02-04 21:00:00 2.2 2 Este 6 Noroeste 0 -- -- 65
2019-02-04 20:00:00 3.6 2 Norte 6 Norte 0 -- -- 59
2019-02-04 19:00:00 6.8 4 Noroeste 6 Noroeste 0 -- -- 46
2019-02-04 18:00:00 11 4 Sudoeste 10 Oeste 0 -- -- 37
2019-02-04 17:00:00 11.9 3 Sudoeste 18 Noroeste 0 -- -- 36
2019-02-04 16:00:00 11.2 6 Oeste 12 Sudoeste 0 -- -- 37
2019-02-04 15:00:00 10 7 Noroeste 12 Oeste 0 -- -- 40
2019-02-04 14:00:00 8.4 3 Noroeste 12 Norte 0 -- -- 44
2019-02-04 13:00:00 6.7 5 Oeste 12 Noroeste 0 -- -- 48
2019-02-04 12:00:00 5.2 3 Sudeste 12 Este 0 -- -- 57
2019-02-04 11:00:00 1.9 6 Sudeste 13 Sudeste 0 -- -- 69
2019-02-04 10:00:00 -0.6 5 Sudeste 13 Sudeste 0 -- -- 79
2019-02-04 09:00:00 -3.6 4 Este 9 Este 0 -- -- 85
2019-02-04 08:00:00 -3.6 3 Sudeste 14 Este 0 -- -- 84
2019-02-04 07:00:00 -3.7 8 Este 12 Este 0 -- -- 85
2019-02-04 06:00:00 -4.2 3 Este 8 Este 0 -- -- 85
2019-02-04 05:00:00 -3.9 4 Sudeste 6 Este 0 -- -- 85
2019-02-04 04:00:00 -3.9 2 Este 7 Este 0 -- -- 82
2019-02-04 03:00:00 -3.2 3 Sudeste 8 Noroeste 0 -- -- 80
2019-02-04 02:00:00 -1.2 3 Noroeste 10 Oeste 0 -- -- 73
2019-02-04 01:00:00 -1.1 6 Noroeste 12 Oeste 0 -- -- 73
2019-02-04 00:00:00 -0.4 5 Sudeste 10 Sudeste 0 -- -- 70
2019-02-03 23:00:00 0.7 4 Nordeste 10 Norte 0 -- -- 59
2019-02-03 22:00:00 2.7 9 Nordeste 14 Nordeste 0 -- -- 55
2019-02-03 21:00:00 2.3 0 Calma 11 Nordeste 0 -- -- 53
2019-02-03 20:00:00 4.4 7 Nordeste 16 Nordeste 0 -- -- 45
2019-02-03 19:00:00 5.5 5 Noroeste 14 Nordeste 0 -- -- 40
2019-02-03 18:00:00 8.5 5 Nordeste 24 Nordeste 0 -- -- 34
2019-02-03 17:00:00 9.6 12 Norte 30 Norte 0 -- -- 34
2019-02-03 16:00:00 9.8 14 Norte 32 Nordeste 0 -- -- 34
2019-02-03 15:00:00 9.2 12 Norte 28 Norte 0 -- -- 35
2019-02-03 14:00:00 8.6 12 Noroeste 24 Noroeste 0 -- -- 37
2019-02-03 13:00:00 7.8 4 Oeste 10 Oeste 0 -- -- 41
2019-02-03 12:00:00 6.8 4 Sudoeste 9 Sudoeste 0 -- -- 47
2019-02-03 11:00:00 5.3 3 Sudoeste 8 Oeste 0 -- -- 55
2019-02-03 10:00:00 2.3 3 Oeste 8 Noroeste 0 -- -- 68
2019-02-03 09:00:00 -1.3 3 Oeste 9 Noroeste 0 -- -- 79
2019-02-03 08:00:00 -1.7 4 Sudeste 9 Sudeste 0 -- -- 76
2019-02-03 07:00:00 -1.7 6 Noroeste 9 Norte 0 -- -- 73
2019-02-03 06:00:00 -0.2 4 Norte 14 Este 0 -- -- 66
2019-02-03 05:00:00 0.6 8 Noroeste 15 Noroeste 0 -- -- 66
2019-02-03 04:00:00 2.1 5 Oeste 24 Norte 0 -- -- 59
2019-02-03 03:00:00 2.5 10 Norte 18 Norte 0 -- -- 60
2019-02-03 02:00:00 3 11 Noroeste 23 Noroeste 0 -- -- 58
2019-02-03 01:00:00 3.7 14 Noroeste 27 Norte 0 -- -- 56
2019-02-03 00:00:00 2.4 12 Noroeste 25 Noroeste 0 -- -- 62
2019-02-02 23:00:00 1.1 7 Oeste 14 Noroeste 0 -- -- 68
2019-02-02 22:00:00 1.8 10 Noroeste 14 Noroeste 0 -- -- 68
2019-02-02 21:00:00 0.4 6 Noroeste 9 Noroeste 0 -- -- 68
2019-02-02 20:00:00 1.9 4 Noroeste 15 Norte 0 -- -- 57
2019-02-02 19:00:00 4.2 8 Noroeste 28 Norte 0 -- -- 50
2019-02-02 18:00:00 6 15 Norte 34 Norte 0 -- -- 45
2019-02-02 17:00:00 7.4 11 Nordeste 42 Noroeste 0 -- -- 40
2019-02-02 16:00:00 8.4 20 Noroeste 42 Noroeste 0 -- -- 37
2019-02-02 15:00:00 9 26 Noroeste 46 Noroeste 0 -- -- 37
2019-02-02 14:00:00 9.5 22 Noroeste 44 Norte 0 -- -- 37
2019-02-02 13:00:00 8.7 24 Noroeste 40 Norte 0 -- -- 39
2019-02-02 12:00:00 6.6 12 Noroeste 30 Noroeste 0 -- -- 44
2019-02-02 11:00:00 6 19 Noroeste 33 Noroeste 0 -- -- 46
2019-02-02 10:00:00 5.4 16 Noroeste 29 Noroeste 0 -- -- 50
2019-02-02 09:00:00 3.9 17 Noroeste 32 Noroeste 0 -- -- 55
2019-02-02 08:00:00 3.9 15 Noroeste 35 Oeste 0 -- -- 57
2019-02-02 07:00:00 4.2 14 Noroeste 28 Oeste 0 -- -- 60
2019-02-02 06:00:00 4.3 19 Oeste 33 Oeste 0 -- -- 63
2019-02-02 05:00:00 3.3 8 Oeste 21 Oeste 0 -- -- 77
2019-02-02 04:00:00 3.8 9 Oeste 28 Oeste 0 -- -- 77
2019-02-02 03:00:00 4.2 12 Oeste 33 Oeste 0 -- -- 76
2019-02-02 02:00:00 3.6 9 Oeste 32 Sudoeste 0 -- -- 77
2019-02-02 01:00:00 4 11 Oeste 26 Oeste 0 -- -- 77
2019-02-02 00:00:00 4.1 5 Oeste 30 Oeste 0 -- -- 76
2019-02-01 23:00:00 4.4 10 Oeste 35 Noroeste 0 -- -- 76
2019-02-01 22:00:00 4.4 14 Oeste 36 Oeste 0 -- -- 74
2019-02-01 21:00:00 5 13 Oeste 44 Oeste 0 -- -- 69
2019-02-01 20:00:00 4.9 12 Oeste 50 Oeste 0 -- -- 77
2019-02-01 19:00:00 5.7 14 Oeste 41 Oeste 0 -- -- 74
2019-02-01 18:00:00 6.2 21 Oeste 42 Oeste 0 -- -- 74
2019-02-01 17:00:00 6.1 14 Oeste -- -- -- -- -- 79
2019-02-01 16:00:00 9.2 17 Oeste 43 Oeste 0 -- -- 60
2019-02-01 15:00:00 10.7 15 Oeste 43 Oeste 0 -- -- 51
2019-02-01 14:00:00 10.3 18 Oeste 47 Oeste 0 -- -- 54
2019-02-01 13:00:00 9.4 17 Oeste 48 Oeste 0 -- -- 59
2019-02-01 12:00:00 8.6 21 Oeste 51 Oeste 0 -- -- 62
2019-02-01 11:00:00 8.5 17 Oeste 39 Oeste 0 -- -- 69
2019-02-01 10:00:00 7.6 14 Oeste 38 Oeste 0 -- -- 74
2019-02-01 09:00:00 7.1 13 Oeste 30 Sudoeste 0 -- -- 76
2019-02-01 08:00:00 6.9 10 Oeste 24 Oeste 0 -- -- 77
2019-02-01 07:00:00 7.2 12 Oeste 33 Oeste 0 -- -- 79
2019-02-01 06:00:00 7.9 14 Sudoeste 35 Oeste 0.1 -- -- 80
2019-02-01 05:00:00 8.2 12 Oeste 41 Oeste 0.6 -- -- 86
2019-02-01 04:00:00 10.4 19 Oeste 42 Oeste 0.6 -- -- 82
2019-02-01 03:00:00 11.2 11 Sudoeste 28 Sudoeste 0.2 -- -- 79
2019-02-01 02:00:00 10.7 9 Sudoeste 27 Oeste 0.1 -- -- 83
2019-02-01 01:00:00 10.4 10 Sudoeste 24 Sudoeste 0.8 -- -- 85
2019-02-01 00:00:00 10.3 7 Sudoeste 19 Sudoeste 0.7 -- -- 84
2019-01-31 23:00:00 10.4 9 Sudoeste 32 Oeste 0.3 -- -- 83
2019-01-31 22:00:00 10.3 5 Sudoeste 17 Oeste 0.1 -- -- 88
2019-01-31 21:00:00 10.7 5 Oeste 17 Oeste 0.2 -- -- 86
2019-01-31 20:00:00 11 8 Oeste 28 Oeste 1.4 -- -- 86
2019-01-31 19:00:00 12.1 13 Sudoeste 28 Sudoeste 0.3 -- -- 75
2019-01-31 18:00:00 13.1 12 Sudoeste 28 Sudoeste 0 -- -- 63
2019-01-31 17:00:00 13.7 13 Oeste 42 Oeste 0 -- -- 60
2019-01-31 16:00:00 13.9 16 Oeste 45 Oeste 0 -- -- 61
2019-01-31 15:00:00 14.1 18 Oeste 48 Oeste 0 -- -- 60
2019-01-31 14:00:00 14.5 21 Oeste 56 Oeste 0 -- -- 59
2019-01-31 13:00:00 13.5 23 Oeste 55 Oeste 0 -- -- 64
2019-01-31 12:00:00 12.2 15 Oeste 41 Oeste 0 -- -- 70
2019-01-31 11:00:00 11.4 17 Oeste 43 Oeste 0 -- -- 77
2019-01-31 10:00:00 11 14 Oeste 42 Oeste 0 -- -- 79
2019-01-31 09:00:00 10.8 16 Oeste 46 Oeste 0 -- -- 78
2019-01-31 08:00:00 10.8 18 Oeste 41 Noroeste 0 -- -- 79
2019-01-31 07:00:00 10.7 17 Oeste 42 Oeste 0 -- -- 84
2019-01-31 06:00:00 10.6 12 Oeste 33 Oeste 0 -- -- 84
2019-01-31 05:00:00 10.3 12 Oeste 31 Oeste 0 -- -- 88
2019-01-31 04:00:00 9.1 9 Oeste 21 Oeste 0.1 -- -- 91
2019-01-31 03:00:00 8.6 6 Oeste 15 Sudoeste 0 -- -- 90
2019-01-31 02:00:00 8.2 6 Oeste 14 Oeste 0 -- -- 90
2019-01-31 01:00:00 7.8 5 Oeste 14 Oeste 0.1 -- -- 90
2019-01-31 00:00:00 7.4 4 Oeste 10 Sudoeste 0.4 -- -- 90
2019-01-30 23:00:00 6.9 0 Calma 5 Sur 0.1 -- -- 89
2019-01-30 22:00:00 6.9 0 Calma 7 Sudoeste 0.8 -- -- 89
2019-01-30 21:00:00 6.9 2 Sudoeste 17 Oeste 0.2 -- -- 88
2019-01-30 20:00:00 7.1 8 Oeste 19 Oeste 0.2 -- -- 84
2019-01-30 19:00:00 7.8 9 Oeste 36 Oeste 0 -- -- 70
2019-01-30 18:00:00 9.2 14 Oeste 41 Oeste 0 -- -- 50
2019-01-30 17:00:00 10.6 12 Oeste 33 Oeste 0 -- -- 38
2019-01-30 16:00:00 10.9 12 Oeste 26 Oeste 0 -- -- 38
2019-01-30 15:00:00 11.4 9 Oeste 25 Noroeste 0 -- -- 40
2019-01-30 14:00:00 11.1 11 Oeste 26 Noroeste 0 -- -- 40
2019-01-30 13:00:00 10.3 9 Oeste 28 Noroeste 0 -- -- 44
2019-01-30 12:00:00 9.5 17 Noroeste 33 Noroeste 0 -- -- 43
2019-01-30 11:00:00 8.3 12 Noroeste 22 Oeste 0 -- -- 52
2019-01-30 10:00:00 6.2 8 Oeste 17 Oeste 0 -- -- 71
2019-01-30 09:00:00 3.8 5 Oeste 16 Oeste 0 -- -- 78
2019-01-30 08:00:00 4.1 9 Noroeste 14 Noroeste 0 -- -- 62
2019-01-30 07:00:00 5 3 Noroeste 14 Noroeste 0 -- -- 58
2019-01-30 06:00:00 6.8 10 Noroeste 21 Noroeste 0 -- -- 54
2019-01-30 05:00:00 7 13 Noroeste 24 Noroeste 0 -- -- 54
2019-01-30 04:00:00 7.2 15 Noroeste 32 Noroeste 0 -- -- 54
2019-01-30 03:00:00 7.7 21 Noroeste 36 Noroeste 0 -- -- 51
2019-01-30 02:00:00 8 23 Noroeste 39 Noroeste 0 -- -- 52
2019-01-30 01:00:00 6.9 13 Oeste 31 Oeste 0 -- -- 88
2019-01-30 00:00:00 7.1 8 Oeste 21 Oeste 0 -- -- 85
2019-01-29 23:00:00 8 8 Oeste 29 Oeste 0 -- -- 81
2019-01-29 22:00:00 8.8 15 Oeste 32 Oeste 0 -- -- 78
2019-01-29 21:00:00 9.5 10 Oeste 34 Oeste 0 -- -- 71
2019-01-29 20:00:00 9.8 15 Oeste 40 Oeste 0 -- -- 69
2019-01-29 19:00:00 10.2 15 Oeste 47 Oeste 0 -- -- 64
2019-01-29 18:00:00 10.8 16 Oeste 39 Oeste 0 -- -- 62
2019-01-29 17:00:00 11 18 Oeste 46 Oeste 0 -- -- 61
2019-01-29 16:00:00 10.6 18 Oeste 50 Noroeste 0 -- -- 60
2019-01-29 15:00:00 10.9 16 Oeste 40 Oeste 0 -- -- 57
2019-01-29 14:00:00 10.7 16 Oeste 39 Oeste 0 -- -- 56
2019-01-29 13:00:00 9.2 10 Oeste 27 Sudoeste 0 -- -- 62
2019-01-29 12:00:00 8.3 9 Oeste 25 Oeste 0 -- -- 66
2019-01-29 11:00:00 7.4 10 Oeste 28 Oeste 0 -- -- 70
2019-01-29 10:00:00 5.9 5 Oeste 14 Oeste 0 -- -- 85
2019-01-29 09:00:00 3.4 3 Oeste 10 Oeste 0 -- -- 87
2019-01-29 08:00:00 1.3 3 Oeste 8 Oeste 0 -- -- 86
2019-01-29 07:00:00 1 0 Calma 4 Sudoeste 0 -- -- 82
2019-01-29 06:00:00 1.4 0 Calma 8 Sudeste 0 -- -- 79
2019-01-29 05:00:00 3.5 0 Calma 8 Oeste 0 -- -- 74
2019-01-29 04:00:00 4.4 4 Oeste 15 Norte 0 -- -- 70
2019-01-29 03:00:00 6 10 Noroeste 18 Oeste 0 -- -- 69
2019-01-29 02:00:00 4.8 0 Calma 9 Noroeste 0 -- -- 69
2019-01-29 01:00:00 7.1 3 Oeste 17 Noroeste 0 -- -- 64
2019-01-29 00:00:00 7.8 6 Oeste 18 Noroeste 0 -- -- 61
2019-01-28 23:00:00 8.7 7 Oeste 25 Noroeste 0 -- -- 58
2019-01-28 22:00:00 10.1 19 Noroeste 35 Noroeste 0 -- -- 53
2019-01-28 21:00:00 10.6 18 Noroeste 32 Noroeste 0 -- -- 51
2019-01-28 20:00:00 10.9 17 Noroeste 33 Noroeste 0 -- -- 50
2019-01-28 19:00:00 11.5 19 Noroeste 35 Noroeste 0 -- -- 47
2019-01-28 18:00:00 13.1 17 Noroeste 35 Oeste 0 -- -- 43
2019-01-28 17:00:00 14.1 17 Oeste 42 Noroeste 0 -- -- 40
2019-01-28 16:00:00 14.1 26 Noroeste 46 Noroeste 0 -- -- 39
2019-01-28 15:00:00 14.2 16 Oeste 38 Oeste 0 -- -- 41
2019-01-28 14:00:00 13.3 18 Oeste 41 Noroeste 0 -- -- 43
2019-01-28 13:00:00 11.6 11 Sudoeste 23 Oeste 0 -- -- 48
2019-01-28 12:00:00 9.5 12 Oeste 28 Oeste 0 -- -- 52
2019-01-28 11:00:00 8.1 12 Oeste 29 Oeste 0 -- -- 55
2019-01-28 10:00:00 6 17 Oeste 32 Oeste 0 -- -- 58
2019-01-28 09:00:00 4 14 Oeste 28 Oeste 0 -- -- 62
2019-01-28 08:00:00 3 9 Oeste 23 Oeste 0 -- -- 64
2019-01-28 07:00:00 3 0 Calma 13 Noroeste 0 -- -- 61
2019-01-28 06:00:00 3.4 7 Noroeste 17 Oeste 0 -- -- 59
2019-01-28 05:00:00 3.1 7 Noroeste 13 Noroeste 0 -- -- 63
2019-01-28 04:00:00 3.2 8 Noroeste 13 Noroeste 0 -- -- 65
2019-01-28 03:00:00 4.2 3 Sur 21 Noroeste 0 -- -- 58
2019-01-28 02:00:00 5.9 11 Oeste 23 Noroeste 0 -- -- 55
2019-01-28 01:00:00 6.5 12 Noroeste 27 Noroeste 0 -- -- 55
2019-01-28 00:00:00 6.9 16 Noroeste 31 Noroeste 0 -- -- 53
2019-01-27 23:00:00 7.3 19 Noroeste 33 Noroeste 0 -- -- 51
2019-01-27 22:00:00 7.4 15 Noroeste 27 Noroeste 0 -- -- 51
2019-01-27 21:00:00 5.7 0 Calma 16 Noroeste 0 -- -- 47
2019-01-27 20:00:00 6.9 10 Noroeste 15 Noroeste 0 -- -- 43
2019-01-27 19:00:00 9 9 Noroeste 37 Norte 0 -- -- 38
2019-01-27 18:00:00 10.9 21 Noroeste 43 Noroeste 0 -- -- 34
2019-01-27 17:00:00 12.6 17 Noroeste 40 Noroeste 0 -- -- 32
2019-01-27 16:00:00 13 21 Noroeste 36 Noroeste 0 -- -- 32
2019-01-27 15:00:00 12.9 18 Noroeste 40 Noroeste 0 -- -- 34
2019-01-27 14:00:00 12.5 13 Noroeste 37 Norte 0 -- -- 37
2019-01-27 13:00:00 11.8 19 Noroeste 37 Noroeste 0 -- -- 41
2019-01-27 12:00:00 11.2 21 Noroeste 39 Noroeste 0 -- -- 45
2019-01-27 11:00:00 10.5 19 Noroeste 46 Noroeste 0 -- -- 48
2019-01-27 10:00:00 8.4 19 Noroeste 37 Noroeste 0 -- -- 68
2019-01-27 09:00:00 -1.7 2 Noroeste 10 Este 0 -- -- 92
2019-01-27 08:00:00 -2.7 0 Calma 7 Sudeste 0 -- -- 92
2019-01-27 07:00:00 -2.8 0 Calma 4 Sudoeste 0 -- -- 91
2019-01-27 06:00:00 -1.9 2 Sudeste 7 Sur 0 -- -- 91
2019-01-27 05:00:00 -1.4 0 Calma 7 Oeste 0 -- -- 90
2019-01-27 04:00:00 -0.9 5 Este 9 Este 0 -- -- 87
2019-01-27 03:00:00 0.1 6 Sudeste 10 Sudeste 0 -- -- 86
2019-01-27 02:00:00 0 0 Calma 8 Sudeste 0 -- -- 84
2019-01-27 01:00:00 1.2 3 Este 9 Este 0 -- -- 81
2019-01-27 00:00:00 3 5 Este 8 Este 0 -- -- 77
2019-01-26 23:00:00 1.7 3 Este 7 Sudeste 0 -- -- 76
2019-01-26 22:00:00 2.1 3 Este 6 Este 0 -- -- 72
2019-01-26 21:00:00 3.1 2 Norte 6 Norte 0 -- -- 66
2019-01-26 20:00:00 4.9 2 Norte 7 Norte 0 -- -- 59
2019-01-26 19:00:00 7.3 2 Norte 6 Norte 0 -- -- 48
2019-01-26 18:00:00 14.1 0 Calma 10 Oeste 0 -- -- 37
2019-01-26 17:00:00 15.3 5 Sudoeste 13 Oeste 0 -- -- 36
2019-01-26 16:00:00 14.7 6 Oeste 17 Oeste 0 -- -- 38
2019-01-26 15:00:00 13.9 5 Oeste 13 Oeste 0 -- -- 39
2019-01-26 14:00:00 12.7 4 Oeste 9 Oeste 0 -- -- 43
2019-01-26 13:00:00 10.8 3 Sudoeste 6 Oeste 0 -- -- 50
2019-01-26 12:00:00 7.9 0 Calma 6 Sudoeste 0 -- -- 59
2019-01-26 11:00:00 5.7 0 Calma 5 Sudeste 0 -- -- 71
2019-01-26 10:00:00 1.8 0 Calma 4 Noroeste 0 -- -- 89
2019-01-26 09:00:00 -2.3 0 Calma 4 Este 0 -- -- 91
2019-01-26 08:00:00 -2.9 4 Noroeste 9 Noroeste 0 -- -- 91
2019-01-26 07:00:00 -2.5 0 Calma 6 Norte 0 -- -- 90
2019-01-26 06:00:00 -1.8 0 Calma 5 Sudoeste 0 -- -- 88
2019-01-26 05:00:00 -1.1 0 Calma 8 Sur 0 -- -- 87
2019-01-26 04:00:00 -0.3 2 Norte 9 Nordeste 0 -- -- 84
2019-01-26 03:00:00 0.1 3 Nordeste 7 Noroeste 0 -- -- 82
2019-01-26 02:00:00 0.8 3 Norte 6 Noroeste 0 -- -- 77
2019-01-26 01:00:00 3.3 0 Calma 9 Oeste 0 -- -- 71
2019-01-26 00:00:00 3.3 4 Nordeste 12 Sur 0 -- -- 65
2019-01-25 23:00:00 6.3 3 Nordeste 14 Este 0 -- -- 55
2019-01-25 22:00:00 7.8 6 Nordeste 19 Nordeste 0 -- -- 49
2019-01-25 21:00:00 8.9 10 Norte 17 Nordeste 0 -- -- 47
2019-01-25 20:00:00 9.9 9 Nordeste 13 Nordeste 0 -- -- 45
2019-01-25 19:00:00 11.6 5 Nordeste 9 Nordeste 0 -- -- 38
2019-01-25 18:00:00 14.5 6 Noroeste 19 Nordeste 0 -- -- 33
2019-01-25 17:00:00 17 6 Norte 22 Nordeste 0 -- -- 31
2019-01-25 16:00:00 17 8 Nordeste 21 Nordeste 0 -- -- 33
2019-01-25 15:00:00 16.7 7 Norte 26 Norte 0 -- -- 33
2019-01-25 14:00:00 16.3 10 Norte 26 Norte 0 -- -- 35
2019-01-25 13:00:00 15.5 9 Norte 23 Noroeste 0 -- -- 39
2019-01-25 12:00:00 13.3 5 Sudoeste 11 Oeste 0 -- -- 51
2019-01-25 11:00:00 10.8 4 Sudoeste 10 Sur 0 -- -- 62
2019-01-25 10:00:00 7.5 4 Sudeste 9 Norte 0 -- -- 84
2019-01-25 09:00:00 2.5 2 Sur 14 Sur 0 -- -- 91
2019-01-25 08:00:00 1.7 4 Norte 9 Norte 0 -- -- 91
2019-01-25 07:00:00 2.3 3 Nordeste 12 Noroeste 0 -- -- 90
2019-01-25 06:00:00 2.4 6 Noroeste 8 Noroeste 0 -- -- 89
2019-01-25 05:00:00 3.3 3 Noroeste 8 Este 0 -- -- 87
2019-01-25 04:00:00 4 7 Noroeste 10 Noroeste 0 -- -- 84
2019-01-25 03:00:00 5 7 Noroeste 12 Noroeste 0 -- -- 80
2019-01-25 02:00:00 6 6 Noroeste 10 Norte 0 -- -- 77
2019-01-25 01:00:00 7.5 3 Oeste 12 Norte 0 -- -- 77
2019-01-25 00:00:00 6.1 3 Noroeste 8 Norte 0 -- -- 75
2019-01-24 23:00:00 6.2 3 Norte 7 Norte 0 -- -- 70
2019-01-24 22:00:00 9.7 5 Oeste 17 Nordeste 0 -- -- 57
2019-01-24 21:00:00 11.8 6 Nordeste 19 Nordeste 0 -- -- 54
2019-01-24 20:00:00 12.4 9 Nordeste 20 Nordeste 0 -- -- 51
2019-01-24 19:00:00 13.1 10 Nordeste 19 Nordeste 0 -- -- 49
2019-01-24 18:00:00 14.3 8 Nordeste 18 Nordeste 0 -- -- 45
2019-01-24 17:00:00 15.2 5 Nordeste 17 Nordeste 0 -- -- 44
2019-01-24 16:00:00 15.9 8 Nordeste 24 Noroeste 0 -- -- 41
2019-01-24 15:00:00 15.8 15 Noroeste 26 Norte 0 -- -- 42
2019-01-24 14:00:00 16.1 13 Noroeste 26 Noroeste 0 -- -- 41
2019-01-24 13:00:00 15.9 15 Noroeste 33 Noroeste 0 -- -- 44
2019-01-24 12:00:00 15.2 17 Noroeste 35 Oeste 0 -- -- 47
2019-01-24 11:00:00 14.4 4 Sudeste 7 Sudeste 0 -- -- 49
2019-01-24 10:00:00 10.5 4 Este 13 Este 0 -- -- 61
2019-01-24 09:00:00 7.7 6 Este 18 Sudeste 0 -- -- 65
2019-01-24 08:00:00 10.1 7 Noroeste 28 Noroeste 0 -- -- 56
2019-01-24 07:00:00 10.6 14 Noroeste 25 Noroeste 0 -- -- 54
2019-01-24 06:00:00 10.6 15 Noroeste 30 Noroeste 0 -- -- 53
2019-01-24 05:00:00 11.1 21 Noroeste 36 Noroeste 0 -- -- 51
2019-01-24 04:00:00 11.1 19 Noroeste 38 Noroeste 0 -- -- 51
2019-01-24 03:00:00 11.3 22 Noroeste 37 Oeste 0 -- -- 51
2019-01-24 02:00:00 11 11 Noroeste 34 Oeste 0 -- -- 51
2019-01-24 01:00:00 11.7 21 Noroeste 40 Noroeste 0 -- -- 50
2019-01-24 00:00:00 12 23 Noroeste 44 Noroeste 0 -- -- 49